sensor_id;sensor_type;location;lat;lon;timestamp;P1;durP1;ratioP1;P2;durP2;ratioP2
12194;SDS011;27023;42.680;23.132;2022-12-11T00:00:08;8.27;;;8.07;;
12194;SDS011;27023;42.680;23.132;2022-12-11T00:02:36;3.93;;;3.93;;
12194;SDS011;27023;42.680;23.132;2022-12-11T00:05:03;1.73;;;1.73;;
12194;SDS011;27023;42.680;23.132;2022-12-11T00:07:30;3.73;;;3.73;;
12194;SDS011;27023;42.680;23.132;2022-12-11T00:09:56;6.33;;;6.23;;
12194;SDS011;27023;42.680;23.132;2022-12-11T00:12:23;8.70;;;8.43;;
12194;SDS011;27023;42.680;23.132;2022-12-11T00:14:51;8.30;;;8.10;;
12194;SDS011;27023;42.680;23.132;2022-12-11T00:17:18;5.60;;;5.57;;
12194;SDS011;27023;42.680;23.132;2022-12-11T00:19:45;1.90;;;1.90;;
12194;SDS011;27023;42.680;23.132;2022-12-11T00:22:11;4.07;;;4.07;;
12194;SDS011;27023;42.680;23.132;2022-12-11T00:24:38;4.37;;;4.37;;
12194;SDS011;27023;42.680;23.132;2022-12-11T00:27:05;6.70;;;6.60;;
12194;SDS011;27023;42.680;23.132;2022-12-11T00:29:32;5.97;;;5.87;;
12194;SDS011;27023;42.680;23.132;2022-12-11T00:32:00;2.20;;;2.10;;
12194;SDS011;27023;42.680;23.132;2022-12-11T00:34:26;2.13;;;2.00;;
12194;SDS011;27023;42.680;23.132;2022-12-11T00:36:53;2.13;;;2.13;;
12194;SDS011;27023;42.680;23.132;2022-12-11T00:39:20;5.23;;;5.13;;
12194;SDS011;27023;42.680;23.132;2022-12-11T00:41:46;5.70;;;5.60;;
12194;SDS011;27023;42.680;23.132;2022-12-11T00:44:13;6.43;;;6.33;;
12194;SDS011;27023;42.680;23.132;2022-12-11T00:46:40;5.67;;;5.57;;
12194;SDS011;27023;42.680;23.132;2022-12-11T00:49:08;7.00;;;6.90;;
12194;SDS011;27023;42.680;23.132;2022-12-11T00:51:34;7.30;;;7.17;;
12194;SDS011;27023;42.680;23.132;2022-12-11T00:54:01;6.63;;;6.53;;
12194;SDS011;27023;42.680;23.132;2022-12-11T00:56:28;5.43;;;5.37;;
12194;SDS011;27023;42.680;23.132;2022-12-11T00:58:55;5.40;;;5.30;;
12194;SDS011;27023;42.680;23.132;2022-12-11T01:01:22;1.90;;;1.90;;
12194;SDS011;27023;42.680;23.132;2022-12-11T01:03:50;1.87;;;1.87;;
12194;SDS011;27023;42.680;23.132;2022-12-11T01:06:19;2.33;;;2.33;;
12194;SDS011;27023;42.680;23.132;2022-12-11T01:08:48;4.50;;;4.47;;
12194;SDS011;27023;42.680;23.132;2022-12-11T01:11:37;7.43;;;7.33;;
12194;SDS011;27023;42.680;23.132;2022-12-11T01:14:03;8.13;;;7.63;;
12194;SDS011;27023;42.680;23.132;2022-12-11T01:16:31;6.37;;;6.27;;
12194;SDS011;27023;42.680;23.132;2022-12-11T01:18:57;7.43;;;7.33;;
12194;SDS011;27023;42.680;23.132;2022-12-11T01:21:26;6.07;;;5.97;;
12194;SDS011;27023;42.680;23.132;2022-12-11T01:23:52;7.70;;;7.60;;
12194;SDS011;27023;42.680;23.132;2022-12-11T01:26:19;7.27;;;6.80;;
12194;SDS011;27023;42.680;23.132;2022-12-11T01:28:48;7.87;;;7.67;;
12194;SDS011;27023;42.680;23.132;2022-12-11T01:31:15;6.90;;;6.80;;
12194;SDS011;27023;42.680;23.132;2022-12-11T01:33:43;4.60;;;4.53;;
12194;SDS011;27023;42.680;23.132;2022-12-11T01:36:11;7.27;;;7.17;;
12194;SDS011;27023;42.680;23.132;2022-12-11T01:38:41;4.80;;;4.80;;
12194;SDS011;27023;42.680;23.132;2022-12-11T01:41:08;6.00;;;5.90;;
12194;SDS011;27023;42.680;23.132;2022-12-11T01:43:34;6.27;;;6.17;;
12194;SDS011;27023;42.680;23.132;2022-12-11T01:46:20;5.47;;;5.37;;
12194;SDS011;27023;42.680;23.132;2022-12-11T01:48:47;10.20;;;9.90;;
12194;SDS011;27023;42.680;23.132;2022-12-11T01:51:14;7.23;;;7.13;;
12194;SDS011;27023;42.680;23.132;2022-12-11T01:53:44;7.00;;;6.90;;
12194;SDS011;27023;42.680;23.132;2022-12-11T01:56:16;8.83;;;8.63;;
12194;SDS011;27023;42.680;23.132;2022-12-11T01:58:46;9.40;;;9.20;;
12194;SDS011;27023;42.680;23.132;2022-12-11T02:01:17;8.77;;;8.57;;
12194;SDS011;27023;42.680;23.132;2022-12-11T02:03:47;8.90;;;8.70;;
12194;SDS011;27023;42.680;23.132;2022-12-11T02:09:06;10.73;;;10.43;;
12194;SDS011;27023;42.680;23.132;2022-12-11T02:11:39;10.40;;;10.10;;
12194;SDS011;27023;42.680;23.132;2022-12-11T02:14:17;10.77;;;10.47;;
12194;SDS011;27023;42.680;23.132;2022-12-11T02:16:49;9.40;;;9.20;;
12194;SDS011;27023;42.680;23.132;2022-12-11T02:19:28;9.60;;;9.40;;
12194;SDS011;27023;42.680;23.132;2022-12-11T02:22:10;8.47;;;8.27;;
12194;SDS011;27023;42.680;23.132;2022-12-11T02:24:48;9.27;;;9.07;;
12194;SDS011;27023;42.680;23.132;2022-12-11T02:27:26;8.47;;;8.27;;
12194;SDS011;27023;42.680;23.132;2022-12-11T02:30:00;9.90;;;9.67;;
12194;SDS011;27023;42.680;23.132;2022-12-11T02:32:31;10.60;;;10.30;;
12194;SDS011;27023;42.680;23.132;2022-12-11T02:35:05;9.80;;;9.60;;
12194;SDS011;27023;42.680;23.132;2022-12-11T02:37:36;8.50;;;8.30;;
12194;SDS011;27023;42.680;23.132;2022-12-11T02:40:07;9.50;;;9.30;;
12194;SDS011;27023;42.680;23.132;2022-12-11T02:42:38;10.80;;;10.37;;
12194;SDS011;27023;42.680;23.132;2022-12-11T02:45:09;9.07;;;8.87;;
12194;SDS011;27023;42.680;23.132;2022-12-11T02:47:37;8.97;;;8.77;;
12194;SDS011;27023;42.680;23.132;2022-12-11T02:50:06;10.13;;;9.83;;
12194;SDS011;27023;42.680;23.132;2022-12-11T02:52:38;11.07;;;10.77;;
12194;SDS011;27023;42.680;23.132;2022-12-11T02:55:07;10.50;;;10.20;;
12194;SDS011;27023;42.680;23.132;2022-12-11T02:57:37;10.60;;;10.30;;
12194;SDS011;27023;42.680;23.132;2022-12-11T03:00:10;9.17;;;8.97;;
12194;SDS011;27023;42.680;23.132;2022-12-11T03:02:37;10.77;;;10.47;;
12194;SDS011;27023;42.680;23.132;2022-12-11T03:05:06;10.40;;;10.10;;
12194;SDS011;27023;42.680;23.132;2022-12-11T03:07:35;10.90;;;10.60;;
12194;SDS011;27023;42.680;23.132;2022-12-11T03:10:03;9.47;;;9.27;;
12194;SDS011;27023;42.680;23.132;2022-12-11T03:12:32;9.77;;;9.57;;
12194;SDS011;27023;42.680;23.132;2022-12-11T03:15:03;10.83;;;10.53;;
12194;SDS011;27023;42.680;23.132;2022-12-11T03:17:34;9.97;;;9.77;;
12194;SDS011;27023;42.680;23.132;2022-12-11T03:20:07;10.83;;;10.53;;
12194;SDS011;27023;42.680;23.132;2022-12-11T03:22:39;10.30;;;10.00;;
12194;SDS011;27023;42.680;23.132;2022-12-11T03:25:11;10.00;;;9.80;;
12194;SDS011;27023;42.680;23.132;2022-12-11T03:27:46;8.33;;;8.20;;
12194;SDS011;27023;42.680;23.132;2022-12-11T03:30:20;8.77;;;8.57;;
12194;SDS011;27023;42.680;23.132;2022-12-11T03:32:50;7.77;;;7.67;;
12194;SDS011;27023;42.680;23.132;2022-12-11T03:35:23;7.43;;;7.33;;
12194;SDS011;27023;42.680;23.132;2022-12-11T03:37:56;8.10;;;7.90;;
12194;SDS011;27023;42.680;23.132;2022-12-11T03:40:28;11.13;;;10.83;;
12194;SDS011;27023;42.680;23.132;2022-12-11T03:42:59;10.90;;;10.60;;
12194;SDS011;27023;42.680;23.132;2022-12-11T03:45:26;11.20;;;10.90;;
12194;SDS011;27023;42.680;23.132;2022-12-11T03:47:57;9.23;;;9.03;;
12194;SDS011;27023;42.680;23.132;2022-12-11T03:50:27;8.97;;;8.77;;
12194;SDS011;27023;42.680;23.132;2022-12-11T03:52:57;8.57;;;8.37;;
12194;SDS011;27023;42.680;23.132;2022-12-11T03:55:25;9.13;;;8.93;;
12194;SDS011;27023;42.680;23.132;2022-12-11T03:57:54;10.20;;;9.70;;
12194;SDS011;27023;42.680;23.132;2022-12-11T04:00:21;9.03;;;8.83;;
12194;SDS011;27023;42.680;23.132;2022-12-11T04:02:48;9.20;;;9.00;;
12194;SDS011;27023;42.680;23.132;2022-12-11T04:05:30;9.70;;;9.50;;
12194;SDS011;27023;42.680;23.132;2022-12-11T04:07:57;8.73;;;8.53;;
12194;SDS011;27023;42.680;23.132;2022-12-11T04:10:24;8.73;;;8.53;;
12194;SDS011;27023;42.680;23.132;2022-12-11T04:12:50;9.30;;;9.10;;
12194;SDS011;27023;42.680;23.132;2022-12-11T04:15:17;10.07;;;9.83;;
12194;SDS011;27023;42.680;23.132;2022-12-11T04:17:44;8.30;;;8.10;;
12194;SDS011;27023;42.680;23.132;2022-12-11T04:20:28;8.87;;;8.67;;
12194;SDS011;27023;42.680;23.132;2022-12-11T04:23:14;9.93;;;9.67;;
12194;SDS011;27023;42.680;23.132;2022-12-11T04:26:02;7.67;;;7.57;;
12194;SDS011;27023;42.680;23.132;2022-12-11T04:28:30;8.60;;;8.40;;
12194;SDS011;27023;42.680;23.132;2022-12-11T04:30:56;9.03;;;8.83;;
12194;SDS011;27023;42.680;23.132;2022-12-11T04:33:23;8.63;;;8.43;;
12194;SDS011;27023;42.680;23.132;2022-12-11T04:35:50;9.17;;;8.97;;
12194;SDS011;27023;42.680;23.132;2022-12-11T04:38:18;8.70;;;8.50;;
12194;SDS011;27023;42.680;23.132;2022-12-11T04:40:44;9.10;;;8.90;;
12194;SDS011;27023;42.680;23.132;2022-12-11T04:43:11;9.10;;;8.90;;
12194;SDS011;27023;42.680;23.132;2022-12-11T04:45:38;9.40;;;9.20;;
12194;SDS011;27023;42.680;23.132;2022-12-11T04:48:04;8.93;;;8.73;;
12194;SDS011;27023;42.680;23.132;2022-12-11T04:50:32;8.23;;;8.03;;
12194;SDS011;27023;42.680;23.132;2022-12-11T04:52:59;9.80;;;9.60;;
12194;SDS011;27023;42.680;23.132;2022-12-11T04:55:27;8.83;;;8.63;;
12194;SDS011;27023;42.680;23.132;2022-12-11T04:57:54;7.80;;;7.70;;
12194;SDS011;27023;42.680;23.132;2022-12-11T05:00:21;9.03;;;8.83;;
12194;SDS011;27023;42.680;23.132;2022-12-11T05:02:47;9.10;;;8.90;;
12194;SDS011;27023;42.680;23.132;2022-12-11T05:05:14;8.57;;;8.37;;
12194;SDS011;27023;42.680;23.132;2022-12-11T05:07:41;9.20;;;9.00;;
12194;SDS011;27023;42.680;23.132;2022-12-11T05:10:08;11.70;;;11.37;;
12194;SDS011;27023;42.680;23.132;2022-12-11T05:12:36;9.77;;;9.57;;
12194;SDS011;27023;42.680;23.132;2022-12-11T05:15:03;10.67;;;10.37;;
12194;SDS011;27023;42.680;23.132;2022-12-11T05:17:31;9.97;;;9.67;;
12194;SDS011;27023;42.680;23.132;2022-12-11T05:19:58;10.60;;;10.30;;
12194;SDS011;27023;42.680;23.132;2022-12-11T05:22:25;9.63;;;9.43;;
12194;SDS011;27023;42.680;23.132;2022-12-11T05:24:52;9.40;;;9.20;;
12194;SDS011;27023;42.680;23.132;2022-12-11T05:27:18;8.77;;;8.57;;
12194;SDS011;27023;42.680;23.132;2022-12-11T05:29:47;9.37;;;9.17;;
12194;SDS011;27023;42.680;23.132;2022-12-11T05:32:13;9.50;;;9.30;;
12194;SDS011;27023;42.680;23.132;2022-12-11T05:34:40;10.20;;;9.90;;
12194;SDS011;27023;42.680;23.132;2022-12-11T05:37:07;12.67;;;12.27;;
12194;SDS011;27023;42.680;23.132;2022-12-11T05:39:34;11.43;;;11.13;;
12194;SDS011;27023;42.680;23.132;2022-12-11T05:42:01;11.37;;;11.07;;
12194;SDS011;27023;42.680;23.132;2022-12-11T05:44:28;11.70;;;11.40;;
12194;SDS011;27023;42.680;23.132;2022-12-11T05:46:56;10.90;;;10.60;;
12194;SDS011;27023;42.680;23.132;2022-12-11T05:49:22;11.50;;;11.20;;
12194;SDS011;27023;42.680;23.132;2022-12-11T05:51:49;10.47;;;10.17;;
12194;SDS011;27023;42.680;23.132;2022-12-11T05:54:16;9.53;;;9.33;;
12194;SDS011;27023;42.680;23.132;2022-12-11T05:56:42;10.03;;;9.77;;
12194;SDS011;27023;42.680;23.132;2022-12-11T05:59:09;9.47;;;9.27;;
12194;SDS011;27023;42.680;23.132;2022-12-11T06:01:36;10.40;;;10.10;;
12194;SDS011;27023;42.680;23.132;2022-12-11T06:04:06;11.53;;;11.23;;
12194;SDS011;27023;42.680;23.132;2022-12-11T06:06:34;10.80;;;10.50;;
12194;SDS011;27023;42.680;23.132;2022-12-11T06:09:03;10.63;;;10.33;;
12194;SDS011;27023;42.680;23.132;2022-12-11T06:11:31;9.90;;;9.60;;
12194;SDS011;27023;42.680;23.132;2022-12-11T06:13:59;9.20;;;9.00;;
12194;SDS011;27023;42.680;23.132;2022-12-11T06:16:27;10.10;;;9.80;;
12194;SDS011;27023;42.680;23.132;2022-12-11T06:18:53;11.43;;;10.77;;
12194;SDS011;27023;42.680;23.132;2022-12-11T06:21:22;9.77;;;9.50;;
12194;SDS011;27023;42.680;23.132;2022-12-11T06:23:51;9.30;;;9.10;;
12194;SDS011;27023;42.680;23.132;2022-12-11T06:26:19;9.23;;;9.03;;
12194;SDS011;27023;42.680;23.132;2022-12-11T06:28:46;9.67;;;9.43;;
12194;SDS011;27023;42.680;23.132;2022-12-11T06:31:14;8.60;;;8.40;;
12194;SDS011;27023;42.680;23.132;2022-12-11T06:33:41;9.17;;;8.97;;
12194;SDS011;27023;42.680;23.132;2022-12-11T06:36:09;8.97;;;8.77;;
12194;SDS011;27023;42.680;23.132;2022-12-11T06:38:39;8.90;;;8.70;;
12194;SDS011;27023;42.680;23.132;2022-12-11T06:41:07;10.10;;;9.80;;
12194;SDS011;27023;42.680;23.132;2022-12-11T06:43:34;7.90;;;7.80;;
12194;SDS011;27023;42.680;23.132;2022-12-11T06:46:02;7.70;;;7.60;;
12194;SDS011;27023;42.680;23.132;2022-12-11T06:48:30;8.13;;;7.83;;
12194;SDS011;27023;42.680;23.132;2022-12-11T06:50:56;7.70;;;7.50;;
12194;SDS011;27023;42.680;23.132;2022-12-11T06:53:23;6.90;;;6.80;;
12194;SDS011;27023;42.680;23.132;2022-12-11T06:55:51;6.53;;;6.43;;
12194;SDS011;27023;42.680;23.132;2022-12-11T06:58:18;7.73;;;7.63;;
12194;SDS011;27023;42.680;23.132;2022-12-11T07:00:44;8.40;;;8.20;;
12194;SDS011;27023;42.680;23.132;2022-12-11T07:03:11;9.27;;;9.07;;
12194;SDS011;27023;42.680;23.132;2022-12-11T07:05:38;12.20;;;11.60;;
12194;SDS011;27023;42.680;23.132;2022-12-11T07:08:05;6.17;;;6.07;;
12194;SDS011;27023;42.680;23.132;2022-12-11T07:10:32;6.57;;;6.47;;
12194;SDS011;27023;42.680;23.132;2022-12-11T07:13:00;7.47;;;7.30;;
12194;SDS011;27023;42.680;23.132;2022-12-11T07:15:26;7.77;;;7.67;;
12194;SDS011;27023;42.680;23.132;2022-12-11T07:17:53;8.83;;;8.63;;
12194;SDS011;27023;42.680;23.132;2022-12-11T07:20:20;8.07;;;7.87;;
12194;SDS011;27023;42.680;23.132;2022-12-11T07:22:47;9.47;;;9.23;;
12194;SDS011;27023;42.680;23.132;2022-12-11T07:25:13;9.00;;;8.80;;
12194;SDS011;27023;42.680;23.132;2022-12-11T07:27:40;6.73;;;6.63;;
12194;SDS011;27023;42.680;23.132;2022-12-11T07:30:09;6.93;;;6.83;;
12194;SDS011;27023;42.680;23.132;2022-12-11T07:32:37;9.33;;;9.13;;
12194;SDS011;27023;42.680;23.132;2022-12-11T07:35:04;4.83;;;4.73;;
12194;SDS011;27023;42.680;23.132;2022-12-11T07:37:31;4.43;;;4.37;;
12194;SDS011;27023;42.680;23.132;2022-12-11T07:39:58;4.07;;;3.77;;
12194;SDS011;27023;42.680;23.132;2022-12-11T07:42:24;2.30;;;2.30;;
12194;SDS011;27023;42.680;23.132;2022-12-11T07:44:51;4.13;;;4.07;;
12194;SDS011;27023;42.680;23.132;2022-12-11T07:47:19;9.73;;;9.40;;
12194;SDS011;27023;42.680;23.132;2022-12-11T07:49:46;2.13;;;2.13;;
12194;SDS011;27023;42.680;23.132;2022-12-11T07:52:13;2.10;;;2.10;;
12194;SDS011;27023;42.680;23.132;2022-12-11T07:54:40;2.03;;;2.03;;
12194;SDS011;27023;42.680;23.132;2022-12-11T07:57:07;3.20;;;2.90;;
12194;SDS011;27023;42.680;23.132;2022-12-11T07:59:34;1.93;;;1.93;;
12194;SDS011;27023;42.680;23.132;2022-12-11T08:02:00;2.00;;;2.00;;
12194;SDS011;27023;42.680;23.132;2022-12-11T08:04:29;2.20;;;2.20;;
12194;SDS011;27023;42.680;23.132;2022-12-11T08:06:56;2.10;;;2.10;;
12194;SDS011;27023;42.680;23.132;2022-12-11T08:09:23;2.13;;;2.13;;
12194;SDS011;27023;42.680;23.132;2022-12-11T08:11:50;2.43;;;2.43;;
12194;SDS011;27023;42.680;23.132;2022-12-11T08:14:17;1.83;;;1.83;;
12194;SDS011;27023;42.680;23.132;2022-12-11T08:16:44;2.03;;;2.03;;
12194;SDS011;27023;42.680;23.132;2022-12-11T08:19:12;13.30;;;12.83;;
12194;SDS011;27023;42.680;23.132;2022-12-11T08:21:40;11.97;;;11.53;;
12194;SDS011;27023;42.680;23.132;2022-12-11T08:24:08;10.33;;;9.97;;
12194;SDS011;27023;42.680;23.132;2022-12-11T08:26:35;2.13;;;2.13;;
12194;SDS011;27023;42.680;23.132;2022-12-11T08:29:02;2.00;;;2.00;;
12194;SDS011;27023;42.680;23.132;2022-12-11T08:31:28;2.27;;;2.27;;
12194;SDS011;27023;42.680;23.132;2022-12-11T08:33:56;2.20;;;2.20;;
12194;SDS011;27023;42.680;23.132;2022-12-11T08:36:23;2.30;;;2.30;;
12194;SDS011;27023;42.680;23.132;2022-12-11T08:38:52;10.43;;;10.10;;
12194;SDS011;27023;42.680;23.132;2022-12-11T08:41:20;1.67;;;1.67;;
12194;SDS011;27023;42.680;23.132;2022-12-11T08:43:49;7.57;;;7.37;;
12194;SDS011;27023;42.680;23.132;2022-12-11T08:46:19;10.90;;;10.57;;
12194;SDS011;27023;42.680;23.132;2022-12-11T08:48:46;1.83;;;1.83;;
12194;SDS011;27023;42.680;23.132;2022-12-11T08:51:13;1.80;;;1.80;;
12194;SDS011;27023;42.680;23.132;2022-12-11T08:53:41;1.70;;;1.70;;
12194;SDS011;27023;42.680;23.132;2022-12-11T08:56:10;9.23;;;8.97;;
12194;SDS011;27023;42.680;23.132;2022-12-11T08:58:38;10.93;;;10.60;;
12194;SDS011;27023;42.680;23.132;2022-12-11T09:01:05;11.57;;;11.17;;
12194;SDS011;27023;42.680;23.132;2022-12-11T09:03:34;11.90;;;11.50;;
12194;SDS011;27023;42.680;23.132;2022-12-11T09:06:02;10.77;;;10.43;;
12194;SDS011;27023;42.680;23.132;2022-12-11T09:08:31;9.63;;;9.33;;
12194;SDS011;27023;42.680;23.132;2022-12-11T09:11:01;2.43;;;2.43;;
12194;SDS011;27023;42.680;23.132;2022-12-11T09:13:30;2.43;;;2.43;;
12194;SDS011;27023;42.680;23.132;2022-12-11T09:15:57;2.17;;;2.17;;
12194;SDS011;27023;42.680;23.132;2022-12-11T09:18:24;10.00;;;9.67;;
12194;SDS011;27023;42.680;23.132;2022-12-11T09:20:56;13.57;;;13.10;;
12194;SDS011;27023;42.680;23.132;2022-12-11T09:23:24;9.67;;;9.33;;
12194;SDS011;27023;42.680;23.132;2022-12-11T09:25:50;2.23;;;2.23;;
12194;SDS011;27023;42.680;23.132;2022-12-11T09:28:17;2.10;;;2.10;;
12194;SDS011;27023;42.680;23.132;2022-12-11T09:30:45;2.13;;;2.13;;
12194;SDS011;27023;42.680;23.132;2022-12-11T09:33:12;9.43;;;9.13;;
12194;SDS011;27023;42.680;23.132;2022-12-11T09:35:38;10.10;;;9.77;;
12194;SDS011;27023;42.680;23.132;2022-12-11T09:38:05;7.53;;;7.30;;
12194;SDS011;27023;42.680;23.132;2022-12-11T09:40:32;13.07;;;12.60;;
12194;SDS011;27023;42.680;23.132;2022-12-11T09:42:59;13.37;;;12.90;;
12194;SDS011;27023;42.680;23.132;2022-12-11T09:45:31;8.47;;;8.23;;
12194;SDS011;27023;42.680;23.132;2022-12-11T09:48:00;2.10;;;2.10;;
12194;SDS011;27023;42.680;23.132;2022-12-11T09:50:28;2.97;;;2.97;;
12194;SDS011;27023;42.680;23.132;2022-12-11T09:53:01;3.10;;;3.10;;
12194;SDS011;27023;42.680;23.132;2022-12-11T09:55:35;2.50;;;2.50;;
12194;SDS011;27023;42.680;23.132;2022-12-11T09:58:10;1.90;;;1.90;;
12194;SDS011;27023;42.680;23.132;2022-12-11T10:00:45;2.10;;;2.10;;
12194;SDS011;27023;42.680;23.132;2022-12-11T10:03:29;2.20;;;2.20;;
12194;SDS011;27023;42.680;23.132;2022-12-11T10:06:15;2.13;;;2.13;;
12194;SDS011;27023;42.680;23.132;2022-12-11T10:08:51;2.70;;;2.70;;
12194;SDS011;27023;42.680;23.132;2022-12-11T10:11:38;1.97;;;1.97;;
12194;SDS011;27023;42.680;23.132;2022-12-11T10:14:12;2.10;;;2.10;;
12194;SDS011;27023;42.680;23.132;2022-12-11T10:16:49;2.10;;;2.10;;
12194;SDS011;27023;42.680;23.132;2022-12-11T10:19:20;14.87;;;14.33;;
12194;SDS011;27023;42.680;23.132;2022-12-11T10:21:51;15.10;;;14.53;;
12194;SDS011;27023;42.680;23.132;2022-12-11T10:24:19;6.53;;;6.33;;
12194;SDS011;27023;42.680;23.132;2022-12-11T10:26:54;16.13;;;15.53;;
12194;SDS011;27023;42.680;23.132;2022-12-11T10:29:23;7.37;;;7.13;;
12194;SDS011;27023;42.680;23.132;2022-12-11T10:31:52;15.33;;;14.73;;
12194;SDS011;27023;42.680;23.132;2022-12-11T10:34:24;2.10;;;2.10;;
12194;SDS011;27023;42.680;23.132;2022-12-11T10:36:58;2.40;;;2.40;;
12194;SDS011;27023;42.680;23.132;2022-12-11T10:39:25;2.73;;;2.73;;
12194;SDS011;27023;42.680;23.132;2022-12-11T10:41:52;2.47;;;2.47;;
12194;SDS011;27023;42.680;23.132;2022-12-11T10:44:20;2.53;;;2.53;;
12194;SDS011;27023;42.680;23.132;2022-12-11T10:46:59;2.57;;;2.57;;
12194;SDS011;27023;42.680;23.132;2022-12-11T10:49:30;2.40;;;2.40;;
12194;SDS011;27023;42.680;23.132;2022-12-11T10:51:58;2.53;;;2.53;;
12194;SDS011;27023;42.680;23.132;2022-12-11T10:54:30;3.03;;;3.03;;
12194;SDS011;27023;42.680;23.132;2022-12-11T10:56:59;3.03;;;3.03;;
12194;SDS011;27023;42.680;23.132;2022-12-11T10:59:29;3.00;;;3.00;;
12194;SDS011;27023;42.680;23.132;2022-12-11T11:02:00;2.63;;;2.63;;
12194;SDS011;27023;42.680;23.132;2022-12-11T11:04:31;3.10;;;3.10;;
12194;SDS011;27023;42.680;23.132;2022-12-11T11:07:01;3.03;;;3.03;;
12194;SDS011;27023;42.680;23.132;2022-12-11T11:09:34;3.27;;;3.27;;
12194;SDS011;27023;42.680;23.132;2022-12-11T11:12:01;3.80;;;3.80;;
12194;SDS011;27023;42.680;23.132;2022-12-11T11:14:29;4.00;;;4.00;;
12194;SDS011;27023;42.680;23.132;2022-12-11T11:16:55;3.50;;;3.50;;
12194;SDS011;27023;42.680;23.132;2022-12-11T11:19:23;3.33;;;3.33;;
12194;SDS011;27023;42.680;23.132;2022-12-11T11:21:56;3.80;;;3.80;;
12194;SDS011;27023;42.680;23.132;2022-12-11T11:24:27;4.47;;;4.37;;
12194;SDS011;27023;42.680;23.132;2022-12-11T11:26:58;3.43;;;3.43;;
12194;SDS011;27023;42.680;23.132;2022-12-11T11:29:28;3.47;;;3.47;;
12194;SDS011;27023;42.680;23.132;2022-12-11T11:31:57;3.53;;;3.53;;
12194;SDS011;27023;42.680;23.132;2022-12-11T11:34:39;2.87;;;2.87;;
12194;SDS011;27023;42.680;23.132;2022-12-11T11:37:20;2.50;;;2.50;;
12194;SDS011;27023;42.680;23.132;2022-12-11T11:39:49;3.83;;;3.83;;
12194;SDS011;27023;42.680;23.132;2022-12-11T11:42:22;3.60;;;3.60;;
12194;SDS011;27023;42.680;23.132;2022-12-11T11:44:58;3.73;;;3.73;;
12194;SDS011;27023;42.680;23.132;2022-12-11T11:47:32;3.17;;;3.17;;
12194;SDS011;27023;42.680;23.132;2022-12-11T11:50:05;5.70;;;5.60;;
12194;SDS011;27023;42.680;23.132;2022-12-11T11:52:39;3.73;;;3.73;;
12194;SDS011;27023;42.680;23.132;2022-12-11T11:55:13;4.37;;;4.23;;
12194;SDS011;27023;42.680;23.132;2022-12-11T11:57:42;3.10;;;3.10;;
12194;SDS011;27023;42.680;23.132;2022-12-11T12:00:17;2.90;;;2.90;;
12194;SDS011;27023;42.680;23.132;2022-12-11T12:02:45;3.23;;;3.23;;
12194;SDS011;27023;42.680;23.132;2022-12-11T12:05:14;2.90;;;2.90;;
12194;SDS011;27023;42.680;23.132;2022-12-11T12:07:50;3.10;;;3.10;;
12194;SDS011;27023;42.680;23.132;2022-12-11T12:10:28;3.80;;;3.80;;
12194;SDS011;27023;42.680;23.132;2022-12-11T12:13:00;3.07;;;3.07;;
12194;SDS011;27023;42.680;23.132;2022-12-11T12:15:33;3.20;;;3.20;;
12194;SDS011;27023;42.680;23.132;2022-12-11T12:18:11;9.83;;;9.53;;
12194;SDS011;27023;42.680;23.132;2022-12-11T12:20:45;15.83;;;15.23;;
12194;SDS011;27023;42.680;23.132;2022-12-11T12:23:28;16.80;;;16.20;;
12194;SDS011;27023;42.680;23.132;2022-12-11T12:26:08;14.03;;;13.53;;
12194;SDS011;27023;42.680;23.132;2022-12-11T12:28:42;18.10;;;17.40;;
12194;SDS011;27023;42.680;23.132;2022-12-11T12:31:19;21.57;;;20.67;;
12194;SDS011;27023;42.680;23.132;2022-12-11T12:33:58;19.73;;;18.93;;
12194;SDS011;27023;42.680;23.132;2022-12-11T12:36:37;15.77;;;15.17;;
12194;SDS011;27023;42.680;23.132;2022-12-11T12:39:15;18.93;;;18.13;;
12194;SDS011;27023;42.680;23.132;2022-12-11T12:41:52;16.83;;;16.20;;
12194;SDS011;27023;42.680;23.132;2022-12-11T12:44:26;18.03;;;17.33;;
12194;SDS011;27023;42.680;23.132;2022-12-11T12:46:59;27.73;;;26.50;;
12194;SDS011;27023;42.680;23.132;2022-12-11T12:49:33;14.63;;;14.13;;
12194;SDS011;27023;42.680;23.132;2022-12-11T12:52:03;12.57;;;12.17;;
12194;SDS011;27023;42.680;23.132;2022-12-11T12:54:33;12.43;;;12.03;;
12194;SDS011;27023;42.680;23.132;2022-12-11T12:57:01;13.67;;;13.20;;
12194;SDS011;27023;42.680;23.132;2022-12-11T12:59:29;13.90;;;13.43;;
12194;SDS011;27023;42.680;23.132;2022-12-11T13:01:57;15.47;;;14.90;;
12194;SDS011;27023;42.680;23.132;2022-12-11T13:04:27;11.20;;;10.87;;
12194;SDS011;27023;42.680;23.132;2022-12-11T13:07:08;12.80;;;12.40;;
12194;SDS011;27023;42.680;23.132;2022-12-11T13:09:39;13.83;;;13.33;;
12194;SDS011;27023;42.680;23.132;2022-12-11T13:12:11;13.27;;;12.83;;
12194;SDS011;27023;42.680;23.132;2022-12-11T13:14:39;15.70;;;15.13;;
12194;SDS011;27023;42.680;23.132;2022-12-11T13:17:21;18.87;;;18.10;;
12194;SDS011;27023;42.680;23.132;2022-12-11T13:20:05;17.07;;;16.37;;
12194;SDS011;27023;42.680;23.132;2022-12-11T13:22:45;18.83;;;18.03;;
12194;SDS011;27023;42.680;23.132;2022-12-11T13:25:20;16.10;;;15.47;;
12194;SDS011;27023;42.680;23.132;2022-12-11T13:27:50;16.13;;;15.47;;
12194;SDS011;27023;42.680;23.132;2022-12-11T13:30:22;13.17;;;12.67;;
12194;SDS011;27023;42.680;23.132;2022-12-11T13:32:54;15.77;;;15.03;;
12194;SDS011;27023;42.680;23.132;2022-12-11T13:35:27;12.03;;;11.63;;
12194;SDS011;27023;42.680;23.132;2022-12-11T13:37:55;10.80;;;10.43;;
12194;SDS011;27023;42.680;23.132;2022-12-11T13:40:31;12.13;;;11.67;;
12194;SDS011;27023;42.680;23.132;2022-12-11T13:43:04;10.03;;;9.63;;
12194;SDS011;27023;42.680;23.132;2022-12-11T13:45:36;10.43;;;10.10;;
12194;SDS011;27023;42.680;23.132;2022-12-11T13:48:11;10.67;;;10.27;;
12194;SDS011;27023;42.680;23.132;2022-12-11T13:50:43;13.37;;;12.80;;
12194;SDS011;27023;42.680;23.132;2022-12-11T13:53:12;10.70;;;10.30;;
12194;SDS011;27023;42.680;23.132;2022-12-11T13:55:42;11.17;;;10.77;;
12194;SDS011;27023;42.680;23.132;2022-12-11T13:58:14;12.23;;;11.67;;
12194;SDS011;27023;42.680;23.132;2022-12-11T14:00:42;15.17;;;14.47;;
12194;SDS011;27023;42.680;23.132;2022-12-11T14:03:22;10.97;;;10.47;;
12194;SDS011;27023;42.680;23.132;2022-12-11T14:05:49;16.73;;;15.87;;
12194;SDS011;27023;42.680;23.132;2022-12-11T14:08:17;14.97;;;14.27;;
12194;SDS011;27023;42.680;23.132;2022-12-11T14:10:52;14.87;;;14.17;;
12194;SDS011;27023;42.680;23.132;2022-12-11T14:13:20;13.57;;;12.97;;
12194;SDS011;27023;42.680;23.132;2022-12-11T14:15:50;16.30;;;15.50;;
12194;SDS011;27023;42.680;23.132;2022-12-11T14:18:19;19.57;;;18.50;;
12194;SDS011;27023;42.680;23.132;2022-12-11T14:20:52;19.63;;;18.57;;
12194;SDS011;27023;42.680;23.132;2022-12-11T14:23:21;17.53;;;16.73;;
12194;SDS011;27023;42.680;23.132;2022-12-11T14:25:54;24.67;;;23.47;;
12194;SDS011;27023;42.680;23.132;2022-12-11T14:28:23;19.13;;;18.10;;
12194;SDS011;27023;42.680;23.132;2022-12-11T14:30:52;16.90;;;16.10;;
12194;SDS011;27023;42.680;23.132;2022-12-11T14:33:22;25.73;;;24.43;;
12194;SDS011;27023;42.680;23.132;2022-12-11T14:35:52;21.47;;;20.50;;
12194;SDS011;27023;42.680;23.132;2022-12-11T14:38:21;20.00;;;19.07;;
12194;SDS011;27023;42.680;23.132;2022-12-11T14:40:52;14.60;;;14.00;;
12194;SDS011;27023;42.680;23.132;2022-12-11T14:43:24;16.93;;;16.13;;